Catalina, California
Current Conditions -  °F | °C
As of 2:51 PM on Sunday 21 Dec 2014 (Local Time) from KAVX Reporting Station
Clear Clear  
Wind Chill: 61°   Ceiling: Unl
Heat Index: 61°   Visibility: 10mi
Dew Point: 54°   Wind: 7mph
Humidity: 78%   Direction: 280°W
Pressure: 30.07"   Gusts: NA
Location:  33.382°N, 118.433°W
Report Text: KAVX 212251Z AUTO 28006KT 10SM CLR 16/12 A3007 RMK AO2 SLP175 T01610122
Loading
Personal Weather Stations






























Interactive Weather Map New forecast layout! Learn more

10-Day Weather Forecast

Advertisements
Track Severe Weather on mobile